CheckWX is a tool to help pilots better visualize weather data.  It is not intended as a substitute for an official pre-flight weather briefing.

07:19:30 UTC

KIPT METAR
Williamsport Regional Airport
Williamsport, Pennsylvania, USA
Current

26 mins ago

KIPT 160654Z AUTO 00000KT 10SM BKN007 OVC070 17/16 A2991 RMK AO2 RAE28 SLP125 P0000 T01720161 $
Observed
Jun-16 @ 06:54 UTC
Visibility
10 SM
Flight Rules
IFR
Cloud Levels
  • Broken at 700' AGL
  • Overcast at 7,000' AGL
Temperature
17°C / 63°F
Dewpoint
16°C / 61°F
Humidity
94%
Altimeter
29.91" Hg
Pressure
1012.92 hPa
Current Rain
0.01"
Previous

1 hour ago

KIPT 160554Z AUTO 00000KT 6SM -RA BR FEW005 BKN060 OVC075 17/16 A2992 RMK AO2 SLP129 P0003 60014 T01720161 10228 20172 55007 $
Observed
Jun-16 @ 05:54 UTC
Visibility
6 SM
Flight Rules
VFR
Conditions
Light Rain, Mist
Cloud Levels
  • Few at 500' AGL
  • Broken at 6,000' AGL
  • Overcast at 7,500' AGL
Temperature
17°C / 63°F
Dewpoint
16°C / 61°F
Humidity
94%
Altimeter
29.92" Hg
Pressure
1013.22 hPa
Current Rain
0.03"
Previous

2 hours ago

KIPT 160454Z AUTO 00000KT 4SM -RA BR OVC060 17/16 A2991 RMK AO2 RAE0359B36 SLP126 P0003 T01720161 402560094 $
Observed
Jun-16 @ 04:54 UTC
Visibility
4 SM
Flight Rules
MVFR
Conditions
Light Rain, Mist
Cloud Levels
  • Overcast at 6,000' AGL
Temperature
17°C / 63°F
Dewpoint
16°C / 61°F
Humidity
94%
Altimeter
29.91" Hg
Pressure
1012.92 hPa
Current Rain
0.03"